sensor_id;sensor_type;location;lat;lon;timestamp;P1;durP1;ratioP1;P2;durP2;ratioP2
83372;SDS011;73281;50.882;5.984;2024-02-16T00:01:34;1.67;;;0.80;;
83372;SDS011;73281;50.882;5.984;2024-02-16T00:04:01;1.73;;;0.57;;
83372;SDS011;73281;50.882;5.984;2024-02-16T00:06:26;3.20;;;0.60;;
83372;SDS011;73281;50.882;5.984;2024-02-16T00:08:52;2.30;;;0.40;;
83372;SDS011;73281;50.882;5.984;2024-02-16T00:11:17;1.20;;;0.50;;
83372;SDS011;73281;50.882;5.984;2024-02-16T00:13:42;2.85;;;0.60;;
83372;SDS011;73281;50.882;5.984;2024-02-16T00:16:08;2.30;;;0.53;;
83372;SDS011;73281;50.882;5.984;2024-02-16T00:18:33;1.37;;;0.50;;
83372;SDS011;73281;50.882;5.984;2024-02-16T00:20:58;2.97;;;0.70;;
83372;SDS011;73281;50.882;5.984;2024-02-16T00:23:24;1.93;;;0.30;;
83372;SDS011;73281;50.882;5.984;2024-02-16T00:25:50;1.60;;;0.55;;
83372;SDS011;73281;50.882;5.984;2024-02-16T00:28:16;1.42;;;0.55;;
83372;SDS011;73281;50.882;5.984;2024-02-16T00:30:41;1.07;;;0.37;;
83372;SDS011;73281;50.882;5.984;2024-02-16T00:33:06;1.27;;;0.33;;
83372;SDS011;73281;50.882;5.984;2024-02-16T00:35:32;2.75;;;0.60;;
83372;SDS011;73281;50.882;5.984;2024-02-16T00:37:59;1.83;;;0.70;;
83372;SDS011;73281;50.882;5.984;2024-02-16T00:40:24;2.03;;;0.68;;
83372;SDS011;73281;50.882;5.984;2024-02-16T00:42:51;1.67;;;0.55;;
83372;SDS011;73281;50.882;5.984;2024-02-16T00:45:17;2.07;;;0.60;;
83372;SDS011;73281;50.882;5.984;2024-02-16T00:47:42;2.22;;;0.63;;
83372;SDS011;73281;50.882;5.984;2024-02-16T00:50:10;2.10;;;0.50;;
83372;SDS011;73281;50.882;5.984;2024-02-16T00:52:35;2.35;;;0.65;;
83372;SDS011;73281;50.882;5.984;2024-02-16T00:55:02;2.20;;;0.70;;
83372;SDS011;73281;50.882;5.984;2024-02-16T00:57:29;3.38;;;1.08;;
83372;SDS011;73281;50.882;5.984;2024-02-16T00:59:54;2.33;;;0.60;;
83372;SDS011;73281;50.882;5.984;2024-02-16T01:02:19;3.27;;;0.60;;
83372;SDS011;73281;50.882;5.984;2024-02-16T01:04:45;1.60;;;0.50;;
83372;SDS011;73281;50.882;5.984;2024-02-16T01:07:12;1.45;;;0.43;;
83372;SDS011;73281;50.882;5.984;2024-02-16T01:09:37;1.93;;;0.70;;
83372;SDS011;73281;50.882;5.984;2024-02-16T01:12:02;1.88;;;0.43;;
83372;SDS011;73281;50.882;5.984;2024-02-16T01:14:28;1.83;;;0.60;;
83372;SDS011;73281;50.882;5.984;2024-02-16T01:16:53;2.47;;;0.57;;
83372;SDS011;73281;50.882;5.984;2024-02-16T01:19:19;2.27;;;0.80;;
83372;SDS011;73281;50.882;5.984;2024-02-16T01:21:44;3.17;;;1.00;;
83372;SDS011;73281;50.882;5.984;2024-02-16T01:24:12;1.57;;;0.70;;
83372;SDS011;73281;50.882;5.984;2024-02-16T01:26:38;2.00;;;0.70;;
83372;SDS011;73281;50.882;5.984;2024-02-16T01:29:03;2.00;;;0.80;;
83372;SDS011;73281;50.882;5.984;2024-02-16T01:31:29;4.27;;;0.63;;
83372;SDS011;73281;50.882;5.984;2024-02-16T01:33:54;2.63;;;0.90;;
83372;SDS011;73281;50.882;5.984;2024-02-16T01:36:19;4.30;;;0.87;;
83372;SDS011;73281;50.882;5.984;2024-02-16T01:38:45;1.87;;;0.60;;
83372;SDS011;73281;50.882;5.984;2024-02-16T01:41:11;3.03;;;0.90;;
83372;SDS011;73281;50.882;5.984;2024-02-16T01:43:37;1.50;;;0.60;;
83372;SDS011;73281;50.882;5.984;2024-02-16T01:46:03;2.78;;;0.70;;
83372;SDS011;73281;50.882;5.984;2024-02-16T01:48:28;3.60;;;1.23;;
83372;SDS011;73281;50.882;5.984;2024-02-16T01:50:54;1.55;;;0.70;;
83372;SDS011;73281;50.882;5.984;2024-02-16T01:53:20;3.33;;;0.77;;
83372;SDS011;73281;50.882;5.984;2024-02-16T01:55:47;2.13;;;0.70;;
83372;SDS011;73281;50.882;5.984;2024-02-16T01:58:13;2.28;;;0.95;;
83372;SDS011;73281;50.882;5.984;2024-02-16T02:00:39;1.83;;;0.43;;
83372;SDS011;73281;50.882;5.984;2024-02-16T02:03:07;5.32;;;1.02;;
83372;SDS011;73281;50.882;5.984;2024-02-16T02:05:33;2.00;;;0.70;;
83372;SDS011;73281;50.882;5.984;2024-02-16T02:07:58;3.17;;;0.80;;
83372;SDS011;73281;50.882;5.984;2024-02-16T02:10:24;2.27;;;0.70;;
83372;SDS011;73281;50.882;5.984;2024-02-16T02:12:49;2.33;;;0.60;;
83372;SDS011;73281;50.882;5.984;2024-02-16T02:15:15;1.57;;;0.43;;
83372;SDS011;73281;50.882;5.984;2024-02-16T02:17:40;3.33;;;0.77;;
83372;SDS011;73281;50.882;5.984;2024-02-16T02:20:06;2.17;;;0.80;;
83372;SDS011;73281;50.882;5.984;2024-02-16T02:22:35;2.23;;;0.77;;
83372;SDS011;73281;50.882;5.984;2024-02-16T02:25:04;2.28;;;0.70;;
83372;SDS011;73281;50.882;5.984;2024-02-16T02:27:30;2.78;;;0.70;;
83372;SDS011;73281;50.882;5.984;2024-02-16T02:29:55;2.97;;;0.87;;
83372;SDS011;73281;50.882;5.984;2024-02-16T02:32:21;2.78;;;1.00;;
83372;SDS011;73281;50.882;5.984;2024-02-16T02:34:46;3.13;;;0.80;;
83372;SDS011;73281;50.882;5.984;2024-02-16T02:37:11;2.93;;;0.70;;
83372;SDS011;73281;50.882;5.984;2024-02-16T02:39:37;7.13;;;0.90;;
83372;SDS011;73281;50.882;5.984;2024-02-16T02:42:02;2.78;;;0.80;;
83372;SDS011;73281;50.882;5.984;2024-02-16T02:44:28;1.90;;;0.60;;
83372;SDS011;73281;50.882;5.984;2024-02-16T02:46:56;2.17;;;0.63;;
83372;SDS011;73281;50.882;5.984;2024-02-16T02:49:21;1.27;;;0.70;;
83372;SDS011;73281;50.882;5.984;2024-02-16T02:51:47;1.97;;;0.70;;
83372;SDS011;73281;50.882;5.984;2024-02-16T02:54:12;2.45;;;0.82;;
83372;SDS011;73281;50.882;5.984;2024-02-16T02:56:38;1.83;;;0.60;;
83372;SDS011;73281;50.882;5.984;2024-02-16T02:59:03;2.87;;;0.67;;
83372;SDS011;73281;50.882;5.984;2024-02-16T03:01:30;2.30;;;0.55;;
83372;SDS011;73281;50.882;5.984;2024-02-16T03:03:56;3.17;;;0.80;;
83372;SDS011;73281;50.882;5.984;2024-02-16T03:06:22;4.20;;;0.85;;
83372;SDS011;73281;50.882;5.984;2024-02-16T03:08:48;1.43;;;0.63;;
83372;SDS011;73281;50.882;5.984;2024-02-16T03:11:14;2.50;;;0.80;;
83372;SDS011;73281;50.882;5.984;2024-02-16T03:13:39;3.00;;;0.90;;
83372;SDS011;73281;50.882;5.984;2024-02-16T03:16:05;3.37;;;0.80;;
83372;SDS011;73281;50.882;5.984;2024-02-16T03:18:31;2.38;;;0.80;;
83372;SDS011;73281;50.882;5.984;2024-02-16T03:20:57;3.63;;;0.80;;
83372;SDS011;73281;50.882;5.984;2024-02-16T03:23:22;2.42;;;0.70;;
83372;SDS011;73281;50.882;5.984;2024-02-16T03:25:48;2.65;;;0.70;;
83372;SDS011;73281;50.882;5.984;2024-02-16T03:28:14;3.30;;;0.70;;
83372;SDS011;73281;50.882;5.984;2024-02-16T03:30:40;2.75;;;1.10;;
83372;SDS011;73281;50.882;5.984;2024-02-16T03:33:07;1.73;;;0.60;;
83372;SDS011;73281;50.882;5.984;2024-02-16T03:35:33;3.27;;;0.80;;
83372;SDS011;73281;50.882;5.984;2024-02-16T03:37:58;2.13;;;0.70;;
83372;SDS011;73281;50.882;5.984;2024-02-16T03:40:24;3.87;;;0.80;;
83372;SDS011;73281;50.882;5.984;2024-02-16T03:42:50;4.40;;;0.70;;
83372;SDS011;73281;50.882;5.984;2024-02-16T03:45:16;2.42;;;0.98;;
83372;SDS011;73281;50.882;5.984;2024-02-16T03:47:41;6.38;;;1.10;;
83372;SDS011;73281;50.882;5.984;2024-02-16T03:50:07;2.50;;;0.83;;
83372;SDS011;73281;50.882;5.984;2024-02-16T03:52:32;2.07;;;0.53;;
83372;SDS011;73281;50.882;5.984;2024-02-16T03:54:58;2.88;;;0.75;;
83372;SDS011;73281;50.882;5.984;2024-02-16T03:57:24;3.58;;;1.15;;
83372;SDS011;73281;50.882;5.984;2024-02-16T03:59:49;3.90;;;0.80;;
83372;SDS011;73281;50.882;5.984;2024-02-16T04:02:15;3.37;;;0.90;;
83372;SDS011;73281;50.882;5.984;2024-02-16T04:04:40;1.50;;;0.63;;
83372;SDS011;73281;50.882;5.984;2024-02-16T04:07:06;3.40;;;0.63;;
83372;SDS011;73281;50.882;5.984;2024-02-16T04:09:32;2.97;;;0.80;;
83372;SDS011;73281;50.882;5.984;2024-02-16T04:12:00;2.75;;;0.90;;
83372;SDS011;73281;50.882;5.984;2024-02-16T04:14:26;2.40;;;0.90;;
83372;SDS011;73281;50.882;5.984;2024-02-16T04:16:52;2.60;;;0.88;;
83372;SDS011;73281;50.882;5.984;2024-02-16T04:19:17;2.07;;;0.60;;
83372;SDS011;73281;50.882;5.984;2024-02-16T04:21:43;3.67;;;0.90;;
83372;SDS011;73281;50.882;5.984;2024-02-16T04:24:08;6.57;;;1.00;;
83372;SDS011;73281;50.882;5.984;2024-02-16T04:26:33;2.00;;;0.63;;
83372;SDS011;73281;50.882;5.984;2024-02-16T04:28:59;1.77;;;0.70;;
83372;SDS011;73281;50.882;5.984;2024-02-16T04:31:24;3.13;;;1.00;;
83372;SDS011;73281;50.882;5.984;2024-02-16T04:33:49;2.60;;;0.80;;
83372;SDS011;73281;50.882;5.984;2024-02-16T04:36:15;3.47;;;0.60;;
83372;SDS011;73281;50.882;5.984;2024-02-16T04:38:41;2.97;;;0.80;;
83372;SDS011;73281;50.882;5.984;2024-02-16T04:41:07;2.70;;;0.90;;
83372;SDS011;73281;50.882;5.984;2024-02-16T04:43:33;1.98;;;0.75;;
83372;SDS011;73281;50.882;5.984;2024-02-16T04:45:59;1.52;;;0.60;;
83372;SDS011;73281;50.882;5.984;2024-02-16T04:48:24;3.40;;;0.80;;
83372;SDS011;73281;50.882;5.984;2024-02-16T04:50:50;2.72;;;1.00;;
83372;SDS011;73281;50.882;5.984;2024-02-16T04:53:16;3.08;;;0.77;;
83372;SDS011;73281;50.882;5.984;2024-02-16T04:55:42;1.87;;;0.83;;
83372;SDS011;73281;50.882;5.984;2024-02-16T04:58:07;2.50;;;0.93;;
83372;SDS011;73281;50.882;5.984;2024-02-16T05:00:37;3.47;;;0.90;;
83372;SDS011;73281;50.882;5.984;2024-02-16T05:03:03;2.85;;;1.13;;
83372;SDS011;73281;50.882;5.984;2024-02-16T05:05:29;3.27;;;0.83;;
83372;SDS011;73281;50.882;5.984;2024-02-16T05:07:55;4.15;;;1.00;;
83372;SDS011;73281;50.882;5.984;2024-02-16T05:10:21;4.13;;;1.10;;
83372;SDS011;73281;50.882;5.984;2024-02-16T05:12:46;4.77;;;1.20;;
83372;SDS011;73281;50.882;5.984;2024-02-16T05:15:12;3.17;;;1.00;;
83372;SDS011;73281;50.882;5.984;2024-02-16T05:17:40;3.22;;;0.90;;
83372;SDS011;73281;50.882;5.984;2024-02-16T05:20:12;3.73;;;1.30;;
83372;SDS011;73281;50.882;5.984;2024-02-16T05:22:43;2.25;;;0.60;;
83372;SDS011;73281;50.882;5.984;2024-02-16T05:25:10;3.80;;;0.98;;
83372;SDS011;73281;50.882;5.984;2024-02-16T05:27:39;4.57;;;0.90;;
83372;SDS011;73281;50.882;5.984;2024-02-16T05:30:05;5.37;;;0.90;;
83372;SDS011;73281;50.882;5.984;2024-02-16T05:32:36;2.92;;;0.80;;
83372;SDS011;73281;50.882;5.984;2024-02-16T05:35:03;3.17;;;0.80;;
83372;SDS011;73281;50.882;5.984;2024-02-16T05:37:47;3.08;;;1.13;;
83372;SDS011;73281;50.882;5.984;2024-02-16T05:40:16;3.13;;;1.00;;
83372;SDS011;73281;50.882;5.984;2024-02-16T05:42:50;4.07;;;1.02;;
83372;SDS011;73281;50.882;5.984;2024-02-16T05:45:16;4.30;;;1.05;;
83372;SDS011;73281;50.882;5.984;2024-02-16T05:47:42;3.37;;;1.00;;
83372;SDS011;73281;50.882;5.984;2024-02-16T05:50:10;2.67;;;0.93;;
83372;SDS011;73281;50.882;5.984;2024-02-16T05:52:37;2.85;;;1.00;;
83372;SDS011;73281;50.882;5.984;2024-02-16T05:55:06;3.95;;;0.80;;
83372;SDS011;73281;50.882;5.984;2024-02-16T05:57:33;1.53;;;0.90;;
83372;SDS011;73281;50.882;5.984;2024-02-16T05:59:58;3.17;;;0.98;;
83372;SDS011;73281;50.882;5.984;2024-02-16T06:02:24;3.83;;;0.87;;
83372;SDS011;73281;50.882;5.984;2024-02-16T06:04:52;5.50;;;1.10;;
83372;SDS011;73281;50.882;5.984;2024-02-16T06:07:18;4.78;;;1.00;;
83372;SDS011;73281;50.882;5.984;2024-02-16T06:09:43;5.63;;;0.83;;
83372;SDS011;73281;50.882;5.984;2024-02-16T06:12:09;3.30;;;1.13;;
83372;SDS011;73281;50.882;5.984;2024-02-16T06:14:35;4.05;;;1.00;;
83372;SDS011;73281;50.882;5.984;2024-02-16T06:17:01;3.53;;;0.95;;
83372;SDS011;73281;50.882;5.984;2024-02-16T06:19:27;2.57;;;1.00;;
83372;SDS011;73281;50.882;5.984;2024-02-16T06:21:53;4.85;;;1.20;;
83372;SDS011;73281;50.882;5.984;2024-02-16T06:24:23;2.67;;;1.20;;
83372;SDS011;73281;50.882;5.984;2024-02-16T06:26:48;3.45;;;0.98;;
83372;SDS011;73281;50.882;5.984;2024-02-16T06:29:15;4.18;;;1.00;;
83372;SDS011;73281;50.882;5.984;2024-02-16T06:31:41;4.23;;;1.27;;
83372;SDS011;73281;50.882;5.984;2024-02-16T06:34:06;4.57;;;1.40;;
83372;SDS011;73281;50.882;5.984;2024-02-16T06:36:31;4.83;;;1.20;;
83372;SDS011;73281;50.882;5.984;2024-02-16T06:38:57;3.47;;;1.10;;
83372;SDS011;73281;50.882;5.984;2024-02-16T06:41:22;3.95;;;1.00;;
83372;SDS011;73281;50.882;5.984;2024-02-16T06:43:47;10.43;;;1.40;;
83372;SDS011;73281;50.882;5.984;2024-02-16T06:46:13;3.67;;;1.30;;
83372;SDS011;73281;50.882;5.984;2024-02-16T06:48:38;3.03;;;1.00;;
83372;SDS011;73281;50.882;5.984;2024-02-16T06:51:03;4.00;;;1.03;;
83372;SDS011;73281;50.882;5.984;2024-02-16T06:53:29;3.87;;;0.90;;
83372;SDS011;73281;50.882;5.984;2024-02-16T06:55:54;4.63;;;0.95;;
83372;SDS011;73281;50.882;5.984;2024-02-16T06:58:19;3.30;;;0.90;;
83372;SDS011;73281;50.882;5.984;2024-02-16T07:00:45;2.30;;;0.97;;
83372;SDS011;73281;50.882;5.984;2024-02-16T07:03:10;3.97;;;1.57;;
83372;SDS011;73281;50.882;5.984;2024-02-16T07:05:36;6.37;;;1.20;;
83372;SDS011;73281;50.882;5.984;2024-02-16T07:08:01;2.78;;;1.13;;
83372;SDS011;73281;50.882;5.984;2024-02-16T07:10:27;4.47;;;1.40;;
83372;SDS011;73281;50.882;5.984;2024-02-16T07:12:52;2.53;;;0.87;;
83372;SDS011;73281;50.882;5.984;2024-02-16T07:15:18;5.87;;;1.33;;
83372;SDS011;73281;50.882;5.984;2024-02-16T07:17:43;5.03;;;1.10;;
83372;SDS011;73281;50.882;5.984;2024-02-16T07:20:09;5.40;;;1.00;;
83372;SDS011;73281;50.882;5.984;2024-02-16T07:22:35;4.13;;;1.10;;
83372;SDS011;73281;50.882;5.984;2024-02-16T07:25:00;5.93;;;1.40;;
83372;SDS011;73281;50.882;5.984;2024-02-16T07:27:26;3.97;;;0.80;;
83372;SDS011;73281;50.882;5.984;2024-02-16T07:29:52;3.63;;;1.13;;
83372;SDS011;73281;50.882;5.984;2024-02-16T07:32:17;3.45;;;0.95;;
83372;SDS011;73281;50.882;5.984;2024-02-16T07:34:46;3.70;;;1.00;;
83372;SDS011;73281;50.882;5.984;2024-02-16T07:37:12;2.83;;;0.98;;
83372;SDS011;73281;50.882;5.984;2024-02-16T07:39:38;3.47;;;0.83;;
83372;SDS011;73281;50.882;5.984;2024-02-16T07:42:03;3.43;;;0.77;;
83372;SDS011;73281;50.882;5.984;2024-02-16T07:44:29;1.95;;;0.52;;
83372;SDS011;73281;50.882;5.984;2024-02-16T07:46:54;4.43;;;1.27;;
83372;SDS011;73281;50.882;5.984;2024-02-16T07:49:20;2.37;;;0.77;;
83372;SDS011;73281;50.882;5.984;2024-02-16T07:51:45;5.73;;;1.10;;
83372;SDS011;73281;50.882;5.984;2024-02-16T07:54:10;4.17;;;1.00;;
83372;SDS011;73281;50.882;5.984;2024-02-16T07:56:36;6.10;;;1.10;;
83372;SDS011;73281;50.882;5.984;2024-02-16T07:59:01;3.83;;;1.00;;
83372;SDS011;73281;50.882;5.984;2024-02-16T08:01:26;5.90;;;0.90;;
83372;SDS011;73281;50.882;5.984;2024-02-16T08:03:52;4.50;;;0.73;;
83372;SDS011;73281;50.882;5.984;2024-02-16T08:06:18;3.28;;;1.10;;
83372;SDS011;73281;50.882;5.984;2024-02-16T08:08:46;4.22;;;0.98;;
83372;SDS011;73281;50.882;5.984;2024-02-16T08:11:12;5.28;;;1.00;;
83372;SDS011;73281;50.882;5.984;2024-02-16T08:13:38;11.63;;;1.60;;
83372;SDS011;73281;50.882;5.984;2024-02-16T08:16:03;4.40;;;1.40;;
83372;SDS011;73281;50.882;5.984;2024-02-16T08:18:32;2.90;;;1.00;;
83372;SDS011;73281;50.882;5.984;2024-02-16T08:20:58;4.93;;;1.10;;
83372;SDS011;73281;50.882;5.984;2024-02-16T08:23:23;6.63;;;1.23;;
83372;SDS011;73281;50.882;5.984;2024-02-16T08:25:48;7.23;;;0.90;;
83372;SDS011;73281;50.882;5.984;2024-02-16T08:28:14;3.63;;;1.17;;
83372;SDS011;73281;50.882;5.984;2024-02-16T08:30:39;4.05;;;1.17;;
83372;SDS011;73281;50.882;5.984;2024-02-16T08:33:08;3.27;;;1.00;;
83372;SDS011;73281;50.882;5.984;2024-02-16T08:35:34;5.28;;;1.20;;
83372;SDS011;73281;50.882;5.984;2024-02-16T08:37:59;3.20;;;0.80;;
83372;SDS011;73281;50.882;5.984;2024-02-16T08:40:25;4.20;;;1.27;;
83372;SDS011;73281;50.882;5.984;2024-02-16T08:42:50;3.97;;;1.20;;
83372;SDS011;73281;50.882;5.984;2024-02-16T08:45:16;3.97;;;0.97;;
83372;SDS011;73281;50.882;5.984;2024-02-16T08:47:42;5.47;;;1.13;;
83372;SDS011;73281;50.882;5.984;2024-02-16T08:50:09;3.15;;;1.08;;
83372;SDS011;73281;50.882;5.984;2024-02-16T08:52:34;5.50;;;0.90;;
83372;SDS011;73281;50.882;5.984;2024-02-16T08:55:00;3.93;;;1.03;;
83372;SDS011;73281;50.882;5.984;2024-02-16T08:57:25;4.93;;;1.10;;
83372;SDS011;73281;50.882;5.984;2024-02-16T08:59:50;4.15;;;1.15;;
83372;SDS011;73281;50.882;5.984;2024-02-16T09:02:16;3.27;;;1.10;;
83372;SDS011;73281;50.882;5.984;2024-02-16T09:04:41;5.63;;;1.23;;
83372;SDS011;73281;50.882;5.984;2024-02-16T09:07:07;5.17;;;1.30;;
83372;SDS011;73281;50.882;5.984;2024-02-16T09:09:32;4.53;;;1.20;;
83372;SDS011;73281;50.882;5.984;2024-02-16T09:11:58;5.80;;;1.42;;
83372;SDS011;73281;50.882;5.984;2024-02-16T09:14:24;7.23;;;1.40;;
83372;SDS011;73281;50.882;5.984;2024-02-16T09:16:49;7.07;;;1.23;;
83372;SDS011;73281;50.882;5.984;2024-02-16T09:19:18;5.55;;;1.30;;
83372;SDS011;73281;50.882;5.984;2024-02-16T09:21:44;3.73;;;1.10;;
83372;SDS011;73281;50.882;5.984;2024-02-16T09:24:10;4.22;;;1.08;;
83372;SDS011;73281;50.882;5.984;2024-02-16T09:26:39;3.78;;;1.65;;
83372;SDS011;73281;50.882;5.984;2024-02-16T09:29:05;2.63;;;1.40;;
83372;SDS011;73281;50.882;5.984;2024-02-16T09:31:31;6.20;;;1.45;;
83372;SDS011;73281;50.882;5.984;2024-02-16T09:33:57;5.00;;;1.53;;
83372;SDS011;73281;50.882;5.984;2024-02-16T09:36:22;2.73;;;1.07;;
83372;SDS011;73281;50.882;5.984;2024-02-16T09:38:48;5.38;;;1.55;;
83372;SDS011;73281;50.882;5.984;2024-02-16T09:41:14;6.65;;;1.25;;
83372;SDS011;73281;50.882;5.984;2024-02-16T09:43:42;5.73;;;1.47;;
83372;SDS011;73281;50.882;5.984;2024-02-16T09:46:08;3.17;;;1.15;;
83372;SDS011;73281;50.882;5.984;2024-02-16T09:48:34;3.92;;;1.15;;
83372;SDS011;73281;50.882;5.984;2024-02-16T09:51:00;4.17;;;1.60;;
83372;SDS011;73281;50.882;5.984;2024-02-16T09:53:27;6.57;;;1.17;;
83372;SDS011;73281;50.882;5.984;2024-02-16T09:55:53;5.03;;;1.67;;
83372;SDS011;73281;50.882;5.984;2024-02-16T09:58:19;5.93;;;1.47;;
83372;SDS011;73281;50.882;5.984;2024-02-16T10:00:49;4.45;;;1.13;;
83372;SDS011;73281;50.882;5.984;2024-02-16T10:03:22;8.93;;;1.47;;
83372;SDS011;73281;50.882;5.984;2024-02-16T10:05:51;8.00;;;2.05;;
83372;SDS011;73281;50.882;5.984;2024-02-16T10:08:17;8.23;;;2.10;;
83372;SDS011;73281;50.882;5.984;2024-02-16T10:10:46;4.95;;;1.08;;
83372;SDS011;73281;50.882;5.984;2024-02-16T10:13:12;4.47;;;1.83;;
83372;SDS011;73281;50.882;5.984;2024-02-16T10:15:40;2.67;;;1.20;;
83372;SDS011;73281;50.882;5.984;2024-02-16T10:18:06;6.40;;;1.70;;
83372;SDS011;73281;50.882;5.984;2024-02-16T10:20:32;6.35;;;1.70;;
83372;SDS011;73281;50.882;5.984;2024-02-16T10:23:17;6.53;;;2.15;;
83372;SDS011;73281;50.882;5.984;2024-02-16T10:25:42;7.03;;;1.35;;
83372;SDS011;73281;50.882;5.984;2024-02-16T10:28:09;7.53;;;1.80;;
83372;SDS011;73281;50.882;5.984;2024-02-16T10:30:37;5.45;;;1.70;;
83372;SDS011;73281;50.882;5.984;2024-02-16T10:33:06;7.30;;;1.80;;
83372;SDS011;73281;50.882;5.984;2024-02-16T10:35:33;6.10;;;1.90;;
83372;SDS011;73281;50.882;5.984;2024-02-16T10:38:00;5.40;;;1.42;;
83372;SDS011;73281;50.882;5.984;2024-02-16T10:40:38;6.57;;;1.97;;
83372;SDS011;73281;50.882;5.984;2024-02-16T10:43:04;7.55;;;2.00;;
83372;SDS011;73281;50.882;5.984;2024-02-16T10:45:34;7.22;;;2.30;;
83372;SDS011;73281;50.882;5.984;2024-02-16T10:48:01;5.43;;;1.77;;
83372;SDS011;73281;50.882;5.984;2024-02-16T10:50:28;4.25;;;1.60;;
83372;SDS011;73281;50.882;5.984;2024-02-16T10:52:53;5.33;;;1.70;;
83372;SDS011;73281;50.882;5.984;2024-02-16T10:55:23;4.57;;;1.90;;
83372;SDS011;73281;50.882;5.984;2024-02-16T10:57:49;7.78;;;2.15;;
83372;SDS011;73281;50.882;5.984;2024-02-16T11:00:15;6.45;;;1.70;;
83372;SDS011;73281;50.882;5.984;2024-02-16T11:02:55;9.87;;;2.70;;
83372;SDS011;73281;50.882;5.984;2024-02-16T11:05:40;11.13;;;2.67;;
83372;SDS011;73281;50.882;5.984;2024-02-16T11:08:13;5.82;;;2.20;;
83372;SDS011;73281;50.882;5.984;2024-02-16T11:10:39;6.07;;;2.17;;
83372;SDS011;73281;50.882;5.984;2024-02-16T11:13:05;7.37;;;1.53;;
83372;SDS011;73281;50.882;5.984;2024-02-16T11:15:31;5.13;;;1.73;;
83372;SDS011;73281;50.882;5.984;2024-02-16T11:17:59;3.37;;;1.70;;
83372;SDS011;73281;50.882;5.984;2024-02-16T11:20:25;6.70;;;1.90;;
83372;SDS011;73281;50.882;5.984;2024-02-16T11:22:51;5.80;;;1.90;;
83372;SDS011;73281;50.882;5.984;2024-02-16T11:25:18;4.93;;;1.70;;
83372;SDS011;73281;50.882;5.984;2024-02-16T11:27:45;4.80;;;1.77;;
83372;SDS011;73281;50.882;5.984;2024-02-16T11:30:12;4.72;;;2.25;;
83372;SDS011;73281;50.882;5.984;2024-02-16T11:32:38;5.10;;;1.93;;
83372;SDS011;73281;50.882;5.984;2024-02-16T11:35:06;6.73;;;1.83;;
83372;SDS011;73281;50.882;5.984;2024-02-16T11:37:32;12.25;;;2.28;;
83372;SDS011;73281;50.882;5.984;2024-02-16T11:39:58;5.93;;;1.88;;
83372;SDS011;73281;50.882;5.984;2024-02-16T11:42:24;6.77;;;2.20;;
83372;SDS011;73281;50.882;5.984;2024-02-16T11:44:55;4.00;;;2.00;;
83372;SDS011;73281;50.882;5.984;2024-02-16T11:47:21;4.13;;;2.00;;
83372;SDS011;73281;50.882;5.984;2024-02-16T11:52:46;6.93;;;1.80;;
83372;SDS011;73281;50.882;5.984;2024-02-16T11:55:12;6.40;;;2.20;;
83372;SDS011;73281;50.882;5.984;2024-02-16T11:57:39;6.50;;;2.60;;
83372;SDS011;73281;50.882;5.984;2024-02-16T12:00:06;6.05;;;2.10;;
83372;SDS011;73281;50.882;5.984;2024-02-16T12:02:39;4.40;;;2.00;;
83372;SDS011;73281;50.882;5.984;2024-02-16T12:05:05;6.73;;;2.30;;
83372;SDS011;73281;50.882;5.984;2024-02-16T12:07:31;6.40;;;2.33;;
83372;SDS011;73281;50.882;5.984;2024-02-16T12:10:00;10.75;;;2.65;;
83372;SDS011;73281;50.882;5.984;2024-02-16T12:12:26;6.23;;;2.83;;
83372;SDS011;73281;50.882;5.984;2024-02-16T12:14:53;6.07;;;2.80;;
83372;SDS011;73281;50.882;5.984;2024-02-16T12:17:19;7.60;;;2.72;;
83372;SDS011;73281;50.882;5.984;2024-02-16T12:19:45;7.55;;;2.92;;
83372;SDS011;73281;50.882;5.984;2024-02-16T12:22:16;8.20;;;3.67;;
83372;SDS011;73281;50.882;5.984;2024-02-16T12:24:48;11.20;;;3.55;;
83372;SDS011;73281;50.882;5.984;2024-02-16T12:27:15;9.85;;;3.45;;
83372;SDS011;73281;50.882;5.984;2024-02-16T12:29:40;6.87;;;3.10;;
83372;SDS011;73281;50.882;5.984;2024-02-16T12:32:06;8.27;;;3.75;;
83372;SDS011;73281;50.882;5.984;2024-02-16T12:34:34;10.33;;;4.00;;
83372;SDS011;73281;50.882;5.984;2024-02-16T12:37:03;11.00;;;3.92;;
83372;SDS011;73281;50.882;5.984;2024-02-16T12:39:29;12.57;;;3.85;;
83372;SDS011;73281;50.882;5.984;2024-02-16T12:41:55;13.23;;;4.20;;
83372;SDS011;73281;50.882;5.984;2024-02-16T12:44:20;6.83;;;3.80;;
83372;SDS011;73281;50.882;5.984;2024-02-16T12:46:46;7.07;;;3.92;;
83372;SDS011;73281;50.882;5.984;2024-02-16T12:49:12;7.67;;;4.23;;
83372;SDS011;73281;50.882;5.984;2024-02-16T12:51:37;7.67;;;4.13;;
83372;SDS011;73281;50.882;5.984;2024-02-16T12:54:02;11.23;;;4.03;;
83372;SDS011;73281;50.882;5.984;2024-02-16T12:56:31;8.90;;;4.03;;
83372;SDS011;73281;50.882;5.984;2024-02-16T12:58:56;9.67;;;3.53;;
83372;SDS011;73281;50.882;5.984;2024-02-16T13:01:25;12.15;;;4.53;;
83372;SDS011;73281;50.882;5.984;2024-02-16T13:03:50;9.00;;;3.80;;
83372;SDS011;73281;50.882;5.984;2024-02-16T13:06:16;8.73;;;4.20;;
83372;SDS011;73281;50.882;5.984;2024-02-16T13:08:41;8.63;;;4.50;;
83372;SDS011;73281;50.882;5.984;2024-02-16T13:11:06;11.60;;;5.00;;
83372;SDS011;73281;50.882;5.984;2024-02-16T13:13:32;12.10;;;4.60;;
83372;SDS011;73281;50.882;5.984;2024-02-16T13:15:58;9.97;;;5.63;;
83372;SDS011;73281;50.882;5.984;2024-02-16T13:18:24;8.93;;;5.00;;
83372;SDS011;73281;50.882;5.984;2024-02-16T13:20:49;10.48;;;5.25;;
83372;SDS011;73281;50.882;5.984;2024-02-16T13:23:15;9.27;;;5.83;;
83372;SDS011;73281;50.882;5.984;2024-02-16T13:25:40;12.10;;;5.07;;
83372;SDS011;73281;50.882;5.984;2024-02-16T13:28:06;16.70;;;6.23;;
83372;SDS011;73281;50.882;5.984;2024-02-16T13:30:31;14.98;;;5.30;;
83372;SDS011;73281;50.882;5.984;2024-02-16T13:32:56;12.83;;;5.73;;
83372;SDS011;73281;50.882;5.984;2024-02-16T13:35:22;10.20;;;5.50;;
83372;SDS011;73281;50.882;5.984;2024-02-16T13:37:48;11.57;;;5.60;;
83372;SDS011;73281;50.882;5.984;2024-02-16T13:40:14;11.13;;;5.90;;
83372;SDS011;73281;50.882;5.984;2024-02-16T13:42:39;19.13;;;7.15;;
83372;SDS011;73281;50.882;5.984;2024-02-16T13:45:06;12.88;;;6.35;;
83372;SDS011;73281;50.882;5.984;2024-02-16T13:47:32;14.52;;;6.85;;
83372;SDS011;73281;50.882;5.984;2024-02-16T13:49:58;10.20;;;6.03;;
83372;SDS011;73281;50.882;5.984;2024-02-16T13:52:24;11.07;;;6.07;;
83372;SDS011;73281;50.882;5.984;2024-02-16T13:54:50;8.32;;;5.28;;
83372;SDS011;73281;50.882;5.984;2024-02-16T13:57:16;11.33;;;5.50;;
83372;SDS011;73281;50.882;5.984;2024-02-16T13:59:45;8.05;;;5.10;;
83372;SDS011;73281;50.882;5.984;2024-02-16T14:02:11;8.33;;;4.77;;
83372;SDS011;73281;50.882;5.984;2024-02-16T14:04:37;10.77;;;5.07;;
83372;SDS011;73281;50.882;5.984;2024-02-16T14:07:03;7.40;;;4.75;;
83372;SDS011;73281;50.882;5.984;2024-02-16T14:09:28;8.67;;;5.73;;
83372;SDS011;73281;50.882;5.984;2024-02-16T14:11:54;9.30;;;6.43;;
83372;SDS011;73281;50.882;5.984;2024-02-16T14:14:21;11.02;;;5.85;;
83372;SDS011;73281;50.882;5.984;2024-02-16T14:16:47;7.87;;;5.37;;
83372;SDS011;73281;50.882;5.984;2024-02-16T14:19:12;8.45;;;5.13;;
83372;SDS011;73281;50.882;5.984;2024-02-16T14:21:38;7.43;;;3.90;;
83372;SDS011;73281;50.882;5.984;2024-02-16T14:24:03;6.40;;;4.73;;
83372;SDS011;73281;50.882;5.984;2024-02-16T14:26:28;8.97;;;4.60;;
83372;SDS011;73281;50.882;5.984;2024-02-16T14:28:54;9.53;;;4.03;;
83372;SDS011;73281;50.882;5.984;2024-02-16T14:31:20;5.43;;;3.63;;
83372;SDS011;73281;50.882;5.984;2024-02-16T14:33:47;7.53;;;3.92;;
83372;SDS011;73281;50.882;5.984;2024-02-16T14:36:13;6.70;;;2.78;;
83372;SDS011;73281;50.882;5.984;2024-02-16T14:38:38;4.00;;;2.97;;
83372;SDS011;73281;50.882;5.984;2024-02-16T14:41:04;4.20;;;2.57;;
83372;SDS011;73281;50.882;5.984;2024-02-16T14:43:30;6.80;;;2.97;;